sensor_id;sensor_type;location;lat;lon;timestamp;noise_LAeq;noise_LA_min;noise_LA_max;noise_LA01;noise_LA95
71020;Laerm;58902;51.436;5.980;2023-04-01T00:00:05;44.29;41.32;47.02;;
71020;Laerm;58902;51.436;5.980;2023-04-01T00:00:17;44.57;41.51;47.30;;
71020;Laerm;58902;51.436;5.980;2023-04-01T00:00:27;45.81;42.96;49.58;;
71020;Laerm;58902;51.436;5.980;2023-04-01T00:00:40;45.97;41.63;49.99;;
71020;Laerm;58902;51.436;5.980;2023-04-01T00:00:51;44.95;41.36;51.52;;
71020;Laerm;58902;51.436;5.980;2023-04-01T00:01:02;44.11;39.72;49.49;;
71020;Laerm;58902;51.436;5.980;2023-04-01T00:01:13;44.87;40.54;53.10;;
71020;Laerm;58902;51.436;5.980;2023-04-01T00:01:24;44.82;40.76;50.24;;
71020;Laerm;58902;51.436;5.980;2023-04-01T00:01:35;45.93;41.04;51.75;;
71020;Laerm;58902;51.436;5.980;2023-04-01T00:01:45;46.06;42.97;48.87;;
71020;Laerm;58902;51.436;5.980;2023-04-01T00:01:56;46.25;42.41;49.19;;
71020;Laerm;58902;51.436;5.980;2023-04-01T00:02:06;45.68;43.01;49.19;;
71020;Laerm;58902;51.436;5.980;2023-04-01T00:02:17;52.56;45.09;60.81;;
71020;Laerm;58902;51.436;5.980;2023-04-01T00:02:27;51.53;47.69;56.45;;
71020;Laerm;58902;51.436;5.980;2023-04-01T00:02:37;52.93;47.90;56.82;;
71020;Laerm;58902;51.436;5.980;2023-04-01T00:02:48;55.35;52.03;60.70;;
71020;Laerm;58902;51.436;5.980;2023-04-01T00:02:58;54.15;48.46;58.63;;
71020;Laerm;58902;51.436;5.980;2023-04-01T00:03:09;53.17;49.22;56.94;;
71020;Laerm;58902;51.436;5.980;2023-04-01T00:03:20;53.15;49.15;55.96;;
71020;Laerm;58902;51.436;5.980;2023-04-01T00:03:30;53.98;50.91;57.60;;
71020;Laerm;58902;51.436;5.980;2023-04-01T00:03:43;52.61;46.75;57.53;;
71020;Laerm;58902;51.436;5.980;2023-04-01T00:03:54;51.64;46.06;55.32;;
71020;Laerm;58902;51.436;5.980;2023-04-01T00:04:04;51.70;48.98;55.65;;
71020;Laerm;58902;51.436;5.980;2023-04-01T00:04:15;49.83;45.10;53.42;;
71020;Laerm;58902;51.436;5.980;2023-04-01T00:04:25;49.02;45.03;53.60;;
71020;Laerm;58902;51.436;5.980;2023-04-01T00:04:36;46.12;40.74;50.46;;
71020;Laerm;58902;51.436;5.980;2023-04-01T00:04:46;45.01;41.06;50.40;;
71020;Laerm;58902;51.436;5.980;2023-04-01T00:04:56;44.79;40.74;52.11;;
71020;Laerm;58902;51.436;5.980;2023-04-01T00:05:07;44.21;40.15;49.21;;
71020;Laerm;58902;51.436;5.980;2023-04-01T00:05:17;43.09;39.34;48.80;;
71020;Laerm;58902;51.436;5.980;2023-04-01T00:05:28;41.29;38.66;44.65;;
71020;Laerm;58902;51.436;5.980;2023-04-01T00:05:38;41.47;38.92;48.30;;
71020;Laerm;58902;51.436;5.980;2023-04-01T00:05:49;42.31;39.60;50.85;;
71020;Laerm;58902;51.436;5.980;2023-04-01T00:06:00;42.38;39.31;51.52;;
71020;Laerm;58902;51.436;5.980;2023-04-01T00:06:14;42.07;38.17;53.53;;
71020;Laerm;58902;51.436;5.980;2023-04-01T00:06:25;41.18;38.04;46.42;;
71020;Laerm;58902;51.436;5.980;2023-04-01T00:06:35;39.53;37.31;42.91;;
71020;Laerm;58902;51.436;5.980;2023-04-01T00:06:46;40.01;37.28;46.11;;
71020;Laerm;58902;51.436;5.980;2023-04-01T00:06:57;40.37;37.91;44.40;;
71020;Laerm;58902;51.436;5.980;2023-04-01T00:07:08;39.62;37.51;44.60;;
71020;Laerm;58902;51.436;5.980;2023-04-01T00:07:18;40.22;37.27;43.98;;
71020;Laerm;58902;51.436;5.980;2023-04-01T00:07:28;40.17;37.33;45.76;;
71020;Laerm;58902;51.436;5.980;2023-04-01T00:07:39;39.39;37.30;44.32;;
71020;Laerm;58902;51.436;5.980;2023-04-01T00:07:50;39.26;37.19;44.03;;
71020;Laerm;58902;51.436;5.980;2023-04-01T00:08:00;42.16;36.24;49.85;;
71020;Laerm;58902;51.436;5.980;2023-04-01T00:08:11;44.97;39.27;49.69;;
71020;Laerm;58902;51.436;5.980;2023-04-01T00:08:22;40.46;38.25;43.50;;
71020;Laerm;58902;51.436;5.980;2023-04-01T00:08:32;40.89;37.83;44.46;;
71020;Laerm;58902;51.436;5.980;2023-04-01T00:08:43;45.98;39.91;53.90;;
71020;Laerm;58902;51.436;5.980;2023-04-01T00:08:54;79.00;52.18;85.92;;
71020;Laerm;58902;51.436;5.980;2023-04-01T00:09:05;79.88;76.01;85.19;;
71020;Laerm;58902;51.436;5.980;2023-04-01T00:09:15;71.00;45.29;80.82;;
71020;Laerm;58902;51.436;5.980;2023-04-01T00:09:26;43.58;41.07;46.98;;
71020;Laerm;58902;51.436;5.980;2023-04-01T00:09:36;43.04;40.25;45.16;;
71020;Laerm;58902;51.436;5.980;2023-04-01T00:09:47;41.55;39.45;46.14;;
71020;Laerm;58902;51.436;5.980;2023-04-01T00:09:57;40.69;38.17;46.76;;
71020;Laerm;58902;51.436;5.980;2023-04-01T00:10:09;40.69;38.36;44.99;;
71020;Laerm;58902;51.436;5.980;2023-04-01T00:10:20;41.04;39.00;43.30;;
71020;Laerm;58902;51.436;5.980;2023-04-01T00:10:30;40.72;38.91;43.35;;
71020;Laerm;58902;51.436;5.980;2023-04-01T00:10:41;46.37;39.46;61.57;;
71020;Laerm;58902;51.436;5.980;2023-04-01T00:10:51;42.92;38.27;57.25;;
71020;Laerm;58902;51.436;5.980;2023-04-01T00:11:02;39.98;37.50;45.99;;
71020;Laerm;58902;51.436;5.980;2023-04-01T00:11:12;39.60;37.03;42.54;;
71020;Laerm;58902;51.436;5.980;2023-04-01T00:11:23;39.28;36.97;42.50;;
71020;Laerm;58902;51.436;5.980;2023-04-01T00:11:33;38.61;35.81;43.31;;
71020;Laerm;58902;51.436;5.980;2023-04-01T00:11:44;38.86;35.77;42.39;;
71020;Laerm;58902;51.436;5.980;2023-04-01T00:11:55;39.22;36.11;45.57;;
71020;Laerm;58902;51.436;5.980;2023-04-01T00:12:05;39.55;37.43;42.76;;
71020;Laerm;58902;51.436;5.980;2023-04-01T00:12:16;43.69;38.35;49.30;;
71020;Laerm;58902;51.436;5.980;2023-04-01T00:12:26;45.01;39.60;52.20;;
71020;Laerm;58902;51.436;5.980;2023-04-01T00:12:37;42.13;39.63;45.03;;
71020;Laerm;58902;51.436;5.980;2023-04-01T00:12:48;42.42;39.97;45.80;;
71020;Laerm;58902;51.436;5.980;2023-04-01T00:12:58;42.75;41.13;45.35;;
71020;Laerm;58902;51.436;5.980;2023-04-01T00:13:08;68.83;41.86;76.77;;
71020;Laerm;58902;51.436;5.980;2023-04-01T00:13:19;72.39;67.77;77.40;;
71020;Laerm;58902;51.436;5.980;2023-04-01T00:13:33;73.19;54.80;81.33;;
71020;Laerm;58902;51.436;5.980;2023-04-01T00:13:43;52.67;42.15;59.74;;
71020;Laerm;58902;51.436;5.980;2023-04-01T00:13:54;43.17;40.57;46.50;;
71020;Laerm;58902;51.436;5.980;2023-04-01T00:14:06;73.76;42.33;84.83;;
71020;Laerm;58902;51.436;5.980;2023-04-01T00:14:17;73.44;69.94;77.52;;
71020;Laerm;58902;51.436;5.980;2023-04-01T00:14:27;71.47;45.50;78.68;;
71020;Laerm;58902;51.436;5.980;2023-04-01T00:14:39;43.85;40.47;47.55;;
71020;Laerm;58902;51.436;5.980;2023-04-01T00:14:49;42.32;40.03;44.47;;
71020;Laerm;58902;51.436;5.980;2023-04-01T00:15:03;40.86;38.36;46.17;;
71020;Laerm;58902;51.436;5.980;2023-04-01T00:15:14;40.88;38.41;48.61;;
71020;Laerm;58902;51.436;5.980;2023-04-01T00:15:25;40.05;37.80;43.55;;
71020;Laerm;58902;51.436;5.980;2023-04-01T00:15:36;39.89;38.00;45.64;;
71020;Laerm;58902;51.436;5.980;2023-04-01T00:15:46;40.16;38.14;45.06;;
71020;Laerm;58902;51.436;5.980;2023-04-01T00:15:57;39.64;37.32;43.54;;
71020;Laerm;58902;51.436;5.980;2023-04-01T00:16:07;38.89;36.52;41.82;;
71020;Laerm;58902;51.436;5.980;2023-04-01T00:16:18;39.48;37.64;43.66;;
71020;Laerm;58902;51.436;5.980;2023-04-01T00:16:28;40.09;37.91;43.77;;
71020;Laerm;58902;51.436;5.980;2023-04-01T00:16:39;40.36;38.18;44.68;;
71020;Laerm;58902;51.436;5.980;2023-04-01T00:16:49;41.10;38.82;45.36;;
71020;Laerm;58902;51.436;5.980;2023-04-01T00:17:03;42.73;40.07;54.86;;
71020;Laerm;58902;51.436;5.980;2023-04-01T00:17:13;46.71;39.44;63.01;;
71020;Laerm;58902;51.436;5.980;2023-04-01T00:17:23;41.01;38.31;44.85;;
71020;Laerm;58902;51.436;5.980;2023-04-01T00:17:34;41.05;39.24;45.30;;
71020;Laerm;58902;51.436;5.980;2023-04-01T00:17:44;41.28;38.65;46.08;;
71020;Laerm;58902;51.436;5.980;2023-04-01T00:17:55;40.94;38.25;44.95;;
71020;Laerm;58902;51.436;5.980;2023-04-01T00:18:05;41.02;38.53;46.34;;
71020;Laerm;58902;51.436;5.980;2023-04-01T00:18:16;40.52;37.90;46.06;;
71020;Laerm;58902;51.436;5.980;2023-04-01T00:18:27;40.62;37.91;45.53;;
71020;Laerm;58902;51.436;5.980;2023-04-01T00:18:37;40.72;38.08;48.11;;
71020;Laerm;58902;51.436;5.980;2023-04-01T00:18:48;39.63;37.16;44.71;;
71020;Laerm;58902;51.436;5.980;2023-04-01T00:18:58;40.15;37.24;45.57;;
71020;Laerm;58902;51.436;5.980;2023-04-01T00:19:09;39.27;36.28;44.33;;
71020;Laerm;58902;51.436;5.980;2023-04-01T00:19:20;38.90;36.63;46.61;;
71020;Laerm;58902;51.436;5.980;2023-04-01T00:19:30;38.12;35.32;44.90;;
71020;Laerm;58902;51.436;5.980;2023-04-01T00:19:42;38.08;35.92;43.15;;
71020;Laerm;58902;51.436;5.980;2023-04-01T00:19:56;38.23;35.36;43.40;;
71020;Laerm;58902;51.436;5.980;2023-04-01T00:20:07;38.39;35.15;45.77;;
71020;Laerm;58902;51.436;5.980;2023-04-01T00:20:17;39.35;36.38;45.36;;
71020;Laerm;58902;51.436;5.980;2023-04-01T00:20:28;38.87;36.10;45.18;;
71020;Laerm;58902;51.436;5.980;2023-04-01T00:20:42;38.55;35.76;43.78;;
71020;Laerm;58902;51.436;5.980;2023-04-01T00:20:54;37.62;35.16;43.96;;
71020;Laerm;58902;51.436;5.980;2023-04-01T00:21:04;37.55;34.93;43.90;;
71020;Laerm;58902;51.436;5.980;2023-04-01T00:21:14;38.21;34.98;44.05;;
71020;Laerm;58902;51.436;5.980;2023-04-01T00:21:25;38.44;35.43;45.75;;
71020;Laerm;58902;51.436;5.980;2023-04-01T00:21:36;39.84;35.93;45.48;;
71020;Laerm;58902;51.436;5.980;2023-04-01T00:21:46;40.16;36.69;44.47;;
71020;Laerm;58902;51.436;5.980;2023-04-01T00:21:58;39.19;35.67;44.37;;
71020;Laerm;58902;51.436;5.980;2023-04-01T00:22:08;38.99;35.48;46.21;;
71020;Laerm;58902;51.436;5.980;2023-04-01T00:22:21;44.98;37.90;51.45;;
71020;Laerm;58902;51.436;5.980;2023-04-01T00:22:32;39.70;36.79;42.43;;
71020;Laerm;58902;51.436;5.980;2023-04-01T00:22:43;38.90;36.77;44.23;;
71020;Laerm;58902;51.436;5.980;2023-04-01T00:22:54;39.81;36.83;45.08;;
71020;Laerm;58902;51.436;5.980;2023-04-01T00:23:05;61.96;38.42;78.30;;
71020;Laerm;58902;51.436;5.980;2023-04-01T00:23:16;74.59;68.37;83.48;;
71020;Laerm;58902;51.436;5.980;2023-04-01T00:23:26;69.33;67.28;72.65;;
71020;Laerm;58902;51.436;5.980;2023-04-01T00:23:36;65.14;45.64;71.67;;
71020;Laerm;58902;51.436;5.980;2023-04-01T00:23:47;41.71;37.69;47.77;;
71020;Laerm;58902;51.436;5.980;2023-04-01T00:23:58;38.24;35.77;43.41;;
71020;Laerm;58902;51.436;5.980;2023-04-01T00:24:09;38.26;36.23;44.25;;
71020;Laerm;58902;51.436;5.980;2023-04-01T00:24:19;38.41;35.80;42.27;;
71020;Laerm;58902;51.436;5.980;2023-04-01T00:24:29;38.29;36.08;44.59;;
71020;Laerm;58902;51.436;5.980;2023-04-01T00:24:40;39.07;36.62;45.20;;
71020;Laerm;58902;51.436;5.980;2023-04-01T00:24:50;39.55;37.00;45.05;;
71020;Laerm;58902;51.436;5.980;2023-04-01T00:25:01;40.26;38.43;43.04;;
71020;Laerm;58902;51.436;5.980;2023-04-01T00:25:12;40.08;37.68;44.81;;
71020;Laerm;58902;51.436;5.980;2023-04-01T00:25:22;41.48;38.06;48.12;;
71020;Laerm;58902;51.436;5.980;2023-04-01T00:25:32;41.78;38.44;45.59;;
71020;Laerm;58902;51.436;5.980;2023-04-01T00:25:43;41.87;39.61;45.40;;
71020;Laerm;58902;51.436;5.980;2023-04-01T00:25:54;40.49;37.83;44.71;;
71020;Laerm;58902;51.436;5.980;2023-04-01T00:26:04;39.54;36.83;44.96;;
71020;Laerm;58902;51.436;5.980;2023-04-01T00:26:15;39.11;36.27;43.77;;
71020;Laerm;58902;51.436;5.980;2023-04-01T00:26:29;38.36;35.92;45.73;;
71020;Laerm;58902;51.436;5.980;2023-04-01T00:26:39;38.06;35.94;45.90;;
71020;Laerm;58902;51.436;5.980;2023-04-01T00:26:52;39.33;36.17;45.96;;
71020;Laerm;58902;51.436;5.980;2023-04-01T00:27:02;41.45;36.63;46.76;;
71020;Laerm;58902;51.436;5.980;2023-04-01T00:27:13;44.79;39.42;51.02;;
71020;Laerm;58902;51.436;5.980;2023-04-01T00:27:23;41.27;38.77;45.39;;
71020;Laerm;58902;51.436;5.980;2023-04-01T00:27:33;41.11;39.10;44.68;;
71020;Laerm;58902;51.436;5.980;2023-04-01T00:27:44;41.89;39.16;45.37;;
71020;Laerm;58902;51.436;5.980;2023-04-01T00:27:54;61.27;39.49;73.66;;
71020;Laerm;58902;51.436;5.980;2023-04-01T00:28:05;73.60;69.77;76.95;;
71020;Laerm;58902;51.436;5.980;2023-04-01T00:28:16;75.43;71.50;80.50;;
71020;Laerm;58902;51.436;5.980;2023-04-01T00:28:27;67.37;48.83;75.89;;
71020;Laerm;58902;51.436;5.980;2023-04-01T00:28:37;45.10;39.30;50.75;;
71020;Laerm;58902;51.436;5.980;2023-04-01T00:28:48;40.65;38.00;44.59;;
71020;Laerm;58902;51.436;5.980;2023-04-01T00:28:58;40.61;37.50;44.79;;
71020;Laerm;58902;51.436;5.980;2023-04-01T00:29:08;41.13;38.60;45.99;;
71020;Laerm;58902;51.436;5.980;2023-04-01T00:29:19;41.24;38.99;45.80;;
71020;Laerm;58902;51.436;5.980;2023-04-01T00:29:29;41.16;39.13;43.92;;
71020;Laerm;58902;51.436;5.980;2023-04-01T00:29:44;41.24;38.66;47.71;;
71020;Laerm;58902;51.436;5.980;2023-04-01T00:29:54;41.23;38.69;45.67;;
71020;Laerm;58902;51.436;5.980;2023-04-01T00:30:05;41.38;39.13;45.80;;
71020;Laerm;58902;51.436;5.980;2023-04-01T00:30:16;41.90;39.58;47.84;;
71020;Laerm;58902;51.436;5.980;2023-04-01T00:30:26;41.50;39.15;47.40;;
71020;Laerm;58902;51.436;5.980;2023-04-01T00:30:37;41.21;38.19;44.63;;
71020;Laerm;58902;51.436;5.980;2023-04-01T00:30:48;43.95;40.35;49.14;;
71020;Laerm;58902;51.436;5.980;2023-04-01T00:30:58;46.48;43.85;50.36;;
71020;Laerm;58902;51.436;5.980;2023-04-01T00:31:09;42.29;39.94;47.67;;
71020;Laerm;58902;51.436;5.980;2023-04-01T00:31:20;42.37;39.91;46.67;;
71020;Laerm;58902;51.436;5.980;2023-04-01T00:31:30;42.61;40.52;47.33;;
71020;Laerm;58902;51.436;5.980;2023-04-01T00:31:41;61.19;40.62;74.53;;
71020;Laerm;58902;51.436;5.980;2023-04-01T00:31:51;70.72;67.10;75.47;;
71020;Laerm;58902;51.436;5.980;2023-04-01T00:32:01;70.34;66.93;74.14;;
71020;Laerm;58902;51.436;5.980;2023-04-01T00:32:12;61.05;44.06;72.53;;
71020;Laerm;58902;51.436;5.980;2023-04-01T00:32:22;43.14;40.27;47.34;;
71020;Laerm;58902;51.436;5.980;2023-04-01T00:32:33;41.43;39.11;45.56;;
71020;Laerm;58902;51.436;5.980;2023-04-01T00:32:43;41.33;38.75;47.01;;
71020;Laerm;58902;51.436;5.980;2023-04-01T00:32:54;41.40;39.04;46.72;;
71020;Laerm;58902;51.436;5.980;2023-04-01T00:33:04;40.89;37.33;47.07;;
71020;Laerm;58902;51.436;5.980;2023-04-01T00:33:15;39.80;36.61;45.83;;
71020;Laerm;58902;51.436;5.980;2023-04-01T00:33:26;39.67;36.58;46.44;;
71020;Laerm;58902;51.436;5.980;2023-04-01T00:33:37;40.41;37.65;45.88;;
71020;Laerm;58902;51.436;5.980;2023-04-01T00:33:48;40.08;37.50;45.00;;
71020;Laerm;58902;51.436;5.980;2023-04-01T00:33:58;40.70;38.47;44.01;;
71020;Laerm;58902;51.436;5.980;2023-04-01T00:34:09;40.07;37.50;44.69;;
71020;Laerm;58902;51.436;5.980;2023-04-01T00:34:19;39.62;37.42;43.20;;
71020;Laerm;58902;51.436;5.980;2023-04-01T00:34:33;40.04;37.59;45.86;;
71020;Laerm;58902;51.436;5.980;2023-04-01T00:34:43;39.69;37.53;44.28;;
71020;Laerm;58902;51.436;5.980;2023-04-01T00:34:54;39.12;36.39;45.35;;
71020;Laerm;58902;51.436;5.980;2023-04-01T00:35:05;44.53;36.24;57.17;;
71020;Laerm;58902;51.436;5.980;2023-04-01T00:35:15;40.14;37.37;50.51;;
71020;Laerm;58902;51.436;5.980;2023-04-01T00:35:26;38.58;35.80;43.19;;
71020;Laerm;58902;51.436;5.980;2023-04-01T00:35:37;38.58;36.71;44.03;;
71020;Laerm;58902;51.436;5.980;2023-04-01T00:35:47;44.46;37.05;48.84;;
71020;Laerm;58902;51.436;5.980;2023-04-01T00:36:11;42.96;38.35;48.30;;
71020;Laerm;58902;51.436;5.980;2023-04-01T00:36:22;40.67;38.10;45.66;;
71020;Laerm;58902;51.436;5.980;2023-04-01T00:36:33;56.60;39.19;70.89;;
71020;Laerm;58902;51.436;5.980;2023-04-01T00:36:43;74.59;71.78;78.18;;
71020;Laerm;58902;51.436;5.980;2023-04-01T00:36:53;73.71;55.29;76.17;;
71020;Laerm;58902;51.436;5.980;2023-04-01T00:37:04;50.66;41.41;56.67;;
71020;Laerm;58902;51.436;5.980;2023-04-01T00:37:14;40.68;37.14;45.82;;
71020;Laerm;58902;51.436;5.980;2023-04-01T00:37:25;38.76;35.90;44.80;;
71020;Laerm;58902;51.436;5.980;2023-04-01T00:37:36;50.55;35.48;65.84;;
71020;Laerm;58902;51.436;5.980;2023-04-01T00:37:46;39.29;36.35;46.35;;
71020;Laerm;58902;51.436;5.980;2023-04-01T00:37:57;38.69;35.79;44.69;;
71020;Laerm;58902;51.436;5.980;2023-04-01T00:38:08;39.45;37.17;44.11;;
71020;Laerm;58902;51.436;5.980;2023-04-01T00:38:21;39.41;36.65;47.09;;
71020;Laerm;58902;51.436;5.980;2023-04-01T00:38:31;40.17;37.06;49.97;;
71020;Laerm;58902;51.436;5.980;2023-04-01T00:38:42;40.30;36.82;45.71;;
71020;Laerm;58902;51.436;5.980;2023-04-01T00:38:53;40.80;38.55;44.50;;
71020;Laerm;58902;51.436;5.980;2023-04-01T00:39:03;40.82;39.16;44.57;;
71020;Laerm;58902;51.436;5.980;2023-04-01T00:39:13;40.49;38.23;45.61;;
71020;Laerm;58902;51.436;5.980;2023-04-01T00:39:24;42.39;38.35;51.97;;
71020;Laerm;58902;51.436;5.980;2023-04-01T00:39:34;42.88;41.04;45.57;;
71020;Laerm;58902;51.436;5.980;2023-04-01T00:39:45;42.21;40.03;47.48;;
71020;Laerm;58902;51.436;5.980;2023-04-01T00:39:56;41.32;39.22;48.09;;
71020;Laerm;58902;51.436;5.980;2023-04-01T00:40:07;39.65;37.53;43.78;;
71020;Laerm;58902;51.436;5.980;2023-04-01T00:40:31;39.64;37.54;45.81;;
71020;Laerm;58902;51.436;5.980;2023-04-01T00:40:42;39.37;36.30;47.05;;
71020;Laerm;58902;51.436;5.980;2023-04-01T00:40:56;38.93;36.75;45.87;;
71020;Laerm;58902;51.436;5.980;2023-04-01T00:41:07;39.51;36.76;44.12;;
71020;Laerm;58902;51.436;5.980;2023-04-01T00:41:18;39.42;37.67;43.01;;
71020;Laerm;58902;51.436;5.980;2023-04-01T00:41:31;40.56;38.26;44.83;;
71020;Laerm;58902;51.436;5.980;2023-04-01T00:41:41;40.36;37.43;44.27;;
71020;Laerm;58902;51.436;5.980;2023-04-01T00:41:52;41.73;39.24;45.47;;
71020;Laerm;58902;51.436;5.980;2023-04-01T00:42:02;41.76;38.80;46.09;;
71020;Laerm;58902;51.436;5.980;2023-04-01T00:42:13;42.12;39.91;45.07;;
71020;Laerm;58902;51.436;5.980;2023-04-01T00:42:23;41.92;39.47;44.75;;
71020;Laerm;58902;51.436;5.980;2023-04-01T00:42:35;43.12;41.00;46.64;;
71020;Laerm;58902;51.436;5.980;2023-04-01T00:42:46;43.15;40.86;45.83;;
71020;Laerm;58902;51.436;5.980;2023-04-01T00:42:56;43.09;40.79;46.85;;
71020;Laerm;58902;51.436;5.980;2023-04-01T00:43:11;43.39;40.80;47.13;;
71020;Laerm;58902;51.436;5.980;2023-04-01T00:43:22;42.72;39.94;46.85;;
71020;Laerm;58902;51.436;5.980;2023-04-01T00:43:34;41.40;38.85;45.93;;
71020;Laerm;58902;51.436;5.980;2023-04-01T00:43:46;42.24;39.68;45.62;;
71020;Laerm;58902;51.436;5.980;2023-04-01T00:44:31;42.36;39.07;47.44;;
71020;Laerm;58902;51.436;5.980;2023-04-01T00:44:38;42.21;39.84;46.44;;
71020;Laerm;58902;51.436;5.980;2023-04-01T00:44:42;42.21;39.87;48.40;;
71020;Laerm;58902;51.436;5.980;2023-04-01T00:44:53;44.33;39.56;61.27;;
71020;Laerm;58902;51.436;5.980;2023-04-01T00:45:34;40.48;36.62;49.98;;
71020;Laerm;58902;51.436;5.980;2023-04-01T00:45:46;39.69;37.16;43.57;;
71020;Laerm;58902;51.436;5.980;2023-04-01T00:45:57;40.21;37.70;44.25;;
71020;Laerm;58902;51.436;5.980;2023-04-01T00:46:07;41.32;38.41;48.67;;
71020;Laerm;58902;51.436;5.980;2023-04-01T00:46:18;39.39;37.25;43.78;;
71020;Laerm;58902;51.436;5.980;2023-04-01T00:46:29;39.24;37.15;43.06;;
71020;Laerm;58902;51.436;5.980;2023-04-01T00:46:39;41.01;37.40;54.80;;
71020;Laerm;58902;51.436;5.980;2023-04-01T00:46:50;43.48;38.59;57.03;;
71020;Laerm;58902;51.436;5.980;2023-04-01T00:47:02;39.76;37.86;44.56;;
71020;Laerm;58902;51.436;5.980;2023-04-01T00:47:13;39.44;37.51;42.60;;
71020;Laerm;58902;51.436;5.980;2023-04-01T00:47:23;39.52;37.82;42.40;;
71020;Laerm;58902;51.436;5.980;2023-04-01T00:47:35;40.06;38.05;46.45;;
71020;Laerm;58902;51.436;5.980;2023-04-01T00:47:46;40.68;38.48;45.46;;
71020;Laerm;58902;51.436;5.980;2023-04-01T00:47:56;40.72;38.55;45.27;;
71020;Laerm;58902;51.436;5.980;2023-04-01T00:48:10;40.50;38.25;43.71;;
71020;Laerm;58902;51.436;5.980;2023-04-01T00:48:25;40.62;38.65;43.60;;
71020;Laerm;58902;51.436;5.980;2023-04-01T00:48:38;40.50;38.89;43.79;;
71020;Laerm;58902;51.436;5.980;2023-04-01T00:48:53;39.63;37.49;43.75;;
71020;Laerm;58902;51.436;5.980;2023-04-01T00:49:05;39.73;37.96;44.72;;
71020;Laerm;58902;51.436;5.980;2023-04-01T00:49:16;38.53;35.52;43.95;;
71020;Laerm;58902;51.436;5.980;2023-04-01T00:49:34;38.14;35.95;45.32;;
71020;Laerm;58902;51.436;5.980;2023-04-01T00:49:48;38.35;35.75;42.61;;
71020;Laerm;58902;51.436;5.980;2023-04-01T00:50:00;38.47;36.50;44.64;;
71020;Laerm;58902;51.436;5.980;2023-04-01T00:50:10;38.08;35.74;43.21;;
71020;Laerm;58902;51.436;5.980;2023-04-01T00:50:21;38.14;36.11;43.03;;
71020;Laerm;58902;51.436;5.980;2023-04-01T00:50:33;38.94;35.58;46.69;;
71020;Laerm;58902;51.436;5.980;2023-04-01T00:50:46;39.62;36.88;47.57;;
71020;Laerm;58902;51.436;5.980;2023-04-01T00:51:01;37.60;35.13;42.04;;
71020;Laerm;58902;51.436;5.980;2023-04-01T00:51:33;37.38;34.99;41.37;;
71020;Laerm;58902;51.436;5.980;2023-04-01T00:51:48;39.70;35.30;51.69;;
71020;Laerm;58902;51.436;5.980;2023-04-01T00:52:03;37.48;34.80;44.15;;
71020;Laerm;58902;51.436;5.980;2023-04-01T00:52:16;37.39;34.75;45.28;;
71020;Laerm;58902;51.436;5.980;2023-04-01T00:52:27;36.58;33.68;42.05;;
71020;Laerm;58902;51.436;5.980;2023-04-01T00:52:38;37.42;35.18;42.91;;
71020;Laerm;58902;51.436;5.980;2023-04-01T00:52:48;40.16;36.65;56.47;;
71020;Laerm;58902;51.436;5.980;2023-04-01T00:52:59;40.65;37.51;51.64;;
71020;Laerm;58902;51.436;5.980;2023-04-01T00:53:10;38.55;36.57;42.98;;
71020;Laerm;58902;51.436;5.980;2023-04-01T00:53:21;40.80;36.87;46.41;;
71020;Laerm;58902;51.436;5.980;2023-04-01T00:53:32;40.72;37.29;55.21;;
71020;Laerm;58902;51.436;5.980;2023-04-01T00:53:44;39.30;36.71;43.21;;
71020;Laerm;58902;51.436;5.980;2023-04-01T00:53:56;41.19;39.56;43.75;;
71020;Laerm;58902;51.436;5.980;2023-04-01T00:54:08;40.86;38.60;45.25;;
71020;Laerm;58902;51.436;5.980;2023-04-01T00:54:19;39.48;37.35;44.51;;
71020;Laerm;58902;51.436;5.980;2023-04-01T00:54:31;38.54;36.26;42.53;;
71020;Laerm;58902;51.436;5.980;2023-04-01T00:54:43;39.24;36.48;42.93;;
71020;Laerm;58902;51.436;5.980;2023-04-01T00:54:56;38.97;35.93;48.53;;
71020;Laerm;58902;51.436;5.980;2023-04-01T00:55:09;40.89;36.41;52.41;;
71020;Laerm;58902;51.436;5.980;2023-04-01T00:55:20;38.11;35.70;42.18;;
71020;Laerm;58902;51.436;5.980;2023-04-01T00:55:35;39.55;37.17;42.63;;
71020;Laerm;58902;51.436;5.980;2023-04-01T00:55:54;40.03;37.86;45.56;;
71020;Laerm;58902;51.436;5.980;2023-04-01T00:56:10;41.85;37.88;47.82;;
71020;Laerm;58902;51.436;5.980;2023-04-01T00:56:24;43.98;39.66;50.21;;
71020;Laerm;58902;51.436;5.980;2023-04-01T00:56:37;43.02;40.55;46.41;;
71020;Laerm;58902;51.436;5.980;2023-04-01T00:57:00;44.76;41.94;50.18;;
71020;Laerm;58902;51.436;5.980;2023-04-01T00:57:13;74.42;45.94;79.46;;
71020;Laerm;58902;51.436;5.980;2023-04-01T00:57:27;71.05;46.27;79.75;;
71020;Laerm;58902;51.436;5.980;2023-04-01T00:57:39;43.56;40.30;47.93;;
71020;Laerm;58902;51.436;5.980;2023-04-01T00:57:52;42.43;39.27;52.12;;
71020;Laerm;58902;51.436;5.980;2023-04-01T00:58:03;43.33;38.70;56.91;;
71020;Laerm;58902;51.436;5.980;2023-04-01T00:58:15;46.34;37.92;58.96;;
71020;Laerm;58902;51.436;5.980;2023-04-01T00:58:27;39.76;37.93;42.86;;
71020;Laerm;58902;51.436;5.980;2023-04-01T00:58:43;39.61;37.08;43.01;;
71020;Laerm;58902;51.436;5.980;2023-04-01T00:58:58;44.27;37.48;55.83;;
71020;Laerm;58902;51.436;5.980;2023-04-01T00:59:43;45.13;39.00;58.84;;
71020;Laerm;58902;51.436;5.980;2023-04-01T00:59:46;68.79;39.47;80.64;;
71020;Laerm;58902;51.436;5.980;2023-04-01T00:59:58;75.04;71.50;78.70;;
71020;Laerm;58902;51.436;5.980;2023-04-01T01:00:09;67.55;43.40;77.93;;
71020;Laerm;58902;51.436;5.980;2023-04-01T01:00:22;42.39;39.37;45.51;;
71020;Laerm;58902;51.436;5.980;2023-04-01T01:00:33;41.31;38.93;49.04;;
71020;Laerm;58902;51.436;5.980;2023-04-01T01:00:45;40.93;38.41;43.75;;
71020;Laerm;58902;51.436;5.980;2023-04-01T01:00:57;43.05;38.86;52.49;;
71020;Laerm;58902;51.436;5.980;2023-04-01T01:01:09;40.66;38.21;46.40;;
71020;Laerm;58902;51.436;5.980;2023-04-01T01:01:22;40.46;38.35;43.81;;
71020;Laerm;58902;51.436;5.980;2023-04-01T01:01:34;40.53;38.18;43.11;;
71020;Laerm;58902;51.436;5.980;2023-04-01T01:01:45;41.06;38.34;45.87;;
71020;Laerm;58902;51.436;5.980;2023-04-01T01:01:56;41.11;38.17;44.72;;
71020;Laerm;58902;51.436;5.980;2023-04-01T01:02:07;41.30;38.15;46.68;;
71020;Laerm;58902;51.436;5.980;2023-04-01T01:02:18;42.16;39.26;45.69;;
71020;Laerm;58902;51.436;5.980;2023-04-01T01:02:29;42.30;39.85;44.85;;
71020;Laerm;58902;51.436;5.980;2023-04-01T01:02:41;42.37;40.13;45.05;;
71020;Laerm;58902;51.436;5.980;2023-04-01T01:02:53;43.73;40.46;50.36;;
71020;Laerm;58902;51.436;5.980;2023-04-01T01:03:03;42.38;40.35;45.99;;
71020;Laerm;58902;51.436;5.980;2023-04-01T01:03:13;41.76;39.30;45.20;;
71020;Laerm;58902;51.436;5.980;2023-04-01T01:03:24;41.23;39.04;45.90;;
71020;Laerm;58902;51.436;5.980;2023-04-01T01:03:35;41.86;39.57;45.46;;
71020;Laerm;58902;51.436;5.980;2023-04-01T01:03:45;43.25;39.64;54.75;;
71020;Laerm;58902;51.436;5.980;2023-04-01T01:03:56;42.03;39.36;47.29;;
71020;Laerm;58902;51.436;5.980;2023-04-01T01:04:06;43.49;40.32;51.92;;
71020;Laerm;58902;51.436;5.980;2023-04-01T01:04:24;43.40;40.75;47.93;;
71020;Laerm;58902;51.436;5.980;2023-04-01T01:04:35;44.75;40.46;48.09;;
71020;Laerm;58902;51.436;5.980;2023-04-01T01:04:46;44.59;41.33;49.71;;
71020;Laerm;58902;51.436;5.980;2023-04-01T01:04:56;43.81;39.88;47.12;;